Time;durP1;ratioP1;P1;durP2;ratioP2;P2;SDS_P1;SDS_P2;PMS_P1;PMS_P2;Temp;Humidity;BMP_temperature;BMP_pressure;BME280_temperature;BME280_humidity;BME280_pressure;Samples;Min_cycle;Max_cycle;Signal;HPM_P1;HPM_P2
2023/06/03 00:00:45;;;;;;;6.35;2.00;;;11.60;99.90;;;;;;5050482;28;20426;-75
2023/06/03 00:03:14;;;;;;;4.90;1.95;;;11.60;99.90;;;;;;5056841;28;20419;-76
2023/06/03 00:05:40;;;;;;;3.25;1.75;;;11.50;99.90;;;;;;5047544;28;20506;-75
2023/06/03 00:08:06;;;;;;;5.72;2.67;;;11.60;99.90;;;;;;5063354;28;20481;-74
2023/06/03 00:10:31;;;;;;;6.35;2.17;;;11.50;99.90;;;;;;5088674;28;20418;-75
2023/06/03 00:12:57;;;;;;;4.60;1.65;;;11.60;99.90;;;;;;5069658;28;20521;-74
2023/06/03 00:15:23;;;;;;;3.60;1.80;;;11.60;99.90;;;;;;5088934;28;21019;-76
2023/06/03 00:17:49;;;;;;;3.47;1.67;;;11.50;99.90;;;;;;5090184;28;20783;-74
2023/06/03 00:20:14;;;;;;;2.80;1.60;;;11.50;99.90;;;;;;5079988;28;20431;-73
2023/06/03 00:22:40;;;;;;;3.43;2.20;;;11.50;99.90;;;;;;5064183;28;20431;-76
2023/06/03 00:25:08;;;;;;;6.40;2.00;;;11.50;99.90;;;;;;5089978;28;20451;-73
2023/06/03 00:27:37;;;;;;;8.95;2.55;;;11.50;99.90;;;;;;5080029;28;20804;-74
2023/06/03 00:30:05;;;;;;;2.35;1.33;;;11.50;99.90;;;;;;5089852;28;20417;-76
2023/06/03 00:32:31;;;;;;;3.08;1.52;;;11.40;99.90;;;;;;5073978;28;20431;-74
2023/06/03 00:34:57;;;;;;;3.60;1.60;;;11.40;99.90;;;;;;5070635;28;20438;-74
2023/06/03 00:37:23;;;;;;;3.60;1.60;;;11.40;99.90;;;;;;5089242;28;20418;-74
2023/06/03 00:39:49;;;;;;;2.30;1.30;;;11.40;99.90;;;;;;5089203;28;20466;-76
2023/06/03 00:42:14;;;;;;;3.45;1.80;;;11.40;99.90;;;;;;5073280;28;20443;-76
2023/06/03 00:44:40;;;;;;;4.53;1.80;;;11.40;99.90;;;;;;5057869;28;20908;-77
2023/06/03 00:47:08;;;;;;;3.10;1.65;;;11.30;99.90;;;;;;5069680;28;20773;-75
2023/06/03 00:49:34;;;;;;;2.92;1.30;;;11.30;99.90;;;;;;5075744;28;20418;-77
2023/06/03 00:52:01;;;;;;;4.93;2.30;;;11.40;99.90;;;;;;5077354;28;20404;-74
2023/06/03 00:54:27;;;;;;;1.95;1.50;;;11.40;99.90;;;;;;5052508;28;20418;-75
2023/06/03 00:56:55;;;;;;;2.60;1.48;;;11.30;99.90;;;;;;5073760;28;20891;-75
2023/06/03 00:59:21;;;;;;;3.00;1.33;;;11.40;99.90;;;;;;5073282;28;20417;-78
2023/06/03 01:01:46;;;;;;;2.85;1.40;;;11.40;99.90;;;;;;5075825;28;20421;-74
2023/06/03 01:04:16;;;;;;;2.70;1.15;;;11.40;99.90;;;;;;5071573;28;20426;-77
2023/06/03 01:07:06;;;;;;;5.40;1.70;;;11.40;99.90;;;;;;5074076;28;20442;-74
2023/06/03 01:10:10;;;;;;;4.78;1.20;;;11.40;99.90;;;;;;5105383;22;20464;-75
2023/06/03 01:13:01;;;;;;;1.70;1.27;;;11.30;99.90;;;;;;5025404;28;20414;-76
2023/06/03 01:15:30;;;;;;;3.30;1.38;;;11.30;99.90;;;;;;5026078;28;20439;-77
2023/06/03 01:18:00;;;;;;;1.97;1.13;;;11.40;99.90;;;;;;5039141;28;20912;-76
2023/06/03 01:20:28;;;;;;;1.95;1.00;;;11.30;99.90;;;;;;5027348;28;20467;-75
2023/06/03 01:23:11;;;;;;;3.08;1.30;;;11.40;99.90;;;;;;5031994;28;20436;-75
2023/06/03 01:25:40;;;;;;;3.33;1.30;;;11.40;99.90;;;;;;5038658;28;20421;-76
2023/06/03 01:28:06;;;;;;;2.10;1.00;;;11.40;99.90;;;;;;5035717;28;20426;-76
2023/06/03 01:30:32;;;;;;;2.03;1.00;;;11.40;99.90;;;;;;5038632;28;20440;-75
2023/06/03 01:32:58;;;;;;;3.90;1.38;;;11.50;99.90;;;;;;5039897;28;20915;-75
2023/06/03 01:35:24;;;;;;;2.60;0.95;;;11.40;99.90;;;;;;5038320;28;20449;-74
2023/06/03 01:37:51;;;;;;;3.17;1.15;;;11.40;99.90;;;;;;5039075;28;20421;-76
2023/06/03 01:40:17;;;;;;;2.83;1.10;;;11.30;99.90;;;;;;5037817;28;20428;-75
2023/06/03 01:42:43;;;;;;;2.38;1.10;;;11.40;99.90;;;;;;5023289;28;20716;-76
2023/06/03 01:45:09;;;;;;;3.13;1.60;;;11.40;99.90;;;;;;5041963;28;20472;-76
2023/06/03 01:47:35;;;;;;;4.80;1.23;;;11.40;99.90;;;;;;5039558;28;20429;-74
2023/06/03 01:50:00;;;;;;;2.30;1.10;;;11.40;99.90;;;;;;5027379;28;20429;-74
2023/06/03 01:52:26;;;;;;;2.47;0.90;;;11.30;99.90;;;;;;5039636;28;20478;-75
2023/06/03 01:54:52;;;;;;;4.73;1.70;;;11.20;99.90;;;;;;5041738;28;20516;-74
2023/06/03 01:57:18;;;;;;;3.57;1.50;;;11.20;99.90;;;;;;5041923;28;20818;-77
2023/06/03 01:59:44;;;;;;;3.77;1.00;;;11.20;99.90;;;;;;5039354;28;20421;-75
2023/06/03 02:02:09;;;;;;;2.88;1.00;;;11.10;99.90;;;;;;5045369;28;20417;-75
2023/06/03 02:04:35;;;;;;;3.50;1.30;;;11.00;99.90;;;;;;5047205;28;20440;-76
2023/06/03 02:07:01;;;;;;;2.03;1.10;;;11.00;99.90;;;;;;5048933;28;20505;-76
2023/06/03 02:09:28;;;;;;;2.75;0.95;;;10.90;99.90;;;;;;5049308;28;20559;-74
2023/06/03 02:11:55;;;;;;;1.80;1.00;;;10.90;99.90;;;;;;5048686;28;20819;-74
2023/06/03 02:14:21;;;;;;;2.55;1.25;;;10.90;99.90;;;;;;5048540;28;20429;-75
2023/06/03 02:16:48;;;;;;;2.78;1.30;;;10.90;99.90;;;;;;5048843;28;20425;-74
2023/06/03 02:19:19;;;;;;;4.28;2.00;;;10.80;99.90;;;;;;5047928;28;20958;-76
2023/06/03 02:21:45;;;;;;;2.90;1.35;;;10.70;99.90;;;;;;5032245;28;20417;-74
2023/06/03 02:24:14;;;;;;;3.22;0.80;;;10.70;99.90;;;;;;5047979;28;20421;-75
2023/06/03 02:26:49;;;;;;;3.08;1.25;;;10.70;99.90;;;;;;5049530;28;20413;-74
2023/06/03 02:29:19;;;;;;;2.40;1.20;;;10.70;99.90;;;;;;5030130;28;20930;-74
2023/06/03 02:31:51;;;;;;;3.77;1.53;;;10.60;99.90;;;;;;5030807;28;20567;-74
2023/06/03 02:34:17;;;;;;;2.47;0.90;;;10.70;99.90;;;;;;5050029;28;20931;-74
2023/06/03 02:36:43;;;;;;;3.10;1.17;;;10.70;99.90;;;;;;5050678;28;20424;-74
2023/06/03 02:39:11;;;;;;;2.63;1.13;;;10.50;99.90;;;;;;5050326;28;20405;-76
2023/06/03 02:41:41;;;;;;;2.60;1.73;;;10.40;99.90;;;;;;5048763;28;20475;-74
2023/06/03 02:44:07;;;;;;;3.15;1.38;;;10.50;99.90;;;;;;5046782;28;20425;-74
2023/06/03 02:46:33;;;;;;;3.60;1.30;;;10.40;99.90;;;;;;5046860;28;20428;-74
2023/06/03 02:49:03;;;;;;;3.35;1.30;;;10.40;99.90;;;;;;5046001;28;20421;-75
2023/06/03 02:51:29;;;;;;;6.30;1.77;;;10.40;99.90;;;;;;5024395;28;20441;-76
2023/06/03 02:53:55;;;;;;;3.42;1.13;;;10.30;99.90;;;;;;5046885;28;20912;-74
2023/06/03 02:56:22;;;;;;;4.90;1.30;;;10.40;99.90;;;;;;5044785;28;20433;-75
2023/06/03 02:58:51;;;;;;;3.42;1.50;;;10.40;99.90;;;;;;5024540;28;20504;-76
2023/06/03 03:01:20;;;;;;;5.45;1.00;;;10.40;99.90;;;;;;5049641;28;20516;-78
2023/06/03 03:03:46;;;;;;;1.38;1.20;;;10.40;99.90;;;;;;5046399;28;20416;-75
2023/06/03 03:06:14;;;;;;;2.67;1.30;;;10.20;99.90;;;;;;5043848;28;20575;-77
2023/06/03 03:08:40;;;;;;;3.07;1.13;;;10.30;99.90;;;;;;5042643;28;20458;-74
2023/06/03 03:11:09;;;;;;;1.47;1.13;;;10.20;99.90;;;;;;5044337;28;20461;-75
2023/06/03 03:13:35;;;;;;;2.78;1.27;;;10.20;99.90;;;;;;5040837;28;20440;-75
2023/06/03 03:16:01;;;;;;;3.88;1.30;;;10.20;99.90;;;;;;5026107;28;20433;-74
2023/06/03 03:18:26;;;;;;;2.00;1.08;;;10.20;99.90;;;;;;5041833;28;20413;-74
2023/06/03 03:20:52;;;;;;;2.10;1.00;;;10.40;99.90;;;;;;5041385;28;20519;-76
2023/06/03 03:23:18;;;;;;;6.07;1.05;;;10.20;99.90;;;;;;5043548;28;20413;-74
2023/06/03 03:25:45;;;;;;;2.27;0.97;;;10.20;99.90;;;;;;5042406;28;20485;-75
2023/06/03 03:28:11;;;;;;;3.15;1.50;;;10.10;99.90;;;;;;5040696;28;20415;-77
2023/06/03 03:30:37;;;;;;;3.47;1.02;;;10.00;99.90;;;;;;5039885;28;20473;-73
2023/06/03 03:33:07;;;;;;;2.47;1.00;;;10.00;99.90;;;;;;5044554;28;20494;-75
2023/06/03 03:35:32;;;;;;;2.53;1.40;;;10.00;99.90;;;;;;5043675;28;20942;-74
2023/06/03 03:38:03;;;;;;;2.95;1.63;;;9.90;99.90;;;;;;5041934;28;20410;-75
2023/06/03 03:40:35;;;;;;;5.18;1.40;;;9.90;99.90;;;;;;5038206;28;21283;-75
2023/06/03 03:43:02;;;;;;;2.53;1.45;;;9.90;99.90;;;;;;5023111;28;20421;-76
2023/06/03 03:45:37;;;;;;;1.80;0.95;;;9.90;99.90;;;;;;5018297;28;20939;-76
2023/06/03 03:48:08;;;;;;;3.83;1.58;;;9.80;99.90;;;;;;5043367;28;20416;-74
2023/06/03 03:50:44;;;;;;;2.65;1.15;;;9.90;99.90;;;;;;5041593;28;20429;-73
2023/06/03 03:53:11;;;;;;;2.15;1.33;;;9.80;99.90;;;;;;5040519;28;20417;-74
2023/06/03 03:55:47;;;;;;;2.20;1.00;;;9.80;99.90;;;;;;5040976;28;20435;-74
2023/06/03 03:58:43;;;;;;;2.92;1.40;;;9.90;99.90;;;;;;5036913;28;20421;-75
2023/06/03 04:01:12;;;;;;;4.32;1.95;;;9.90;99.90;;;;;;5033904;28;20512;-75
2023/06/03 04:03:42;;;;;;;3.47;1.10;;;10.00;99.90;;;;;;5028113;28;20422;-77
2023/06/03 04:06:10;;;;;;;3.25;1.60;;;9.90;99.90;;;;;;5026616;28;20489;-75
2023/06/03 04:08:43;;;;;;;2.47;1.17;;;9.90;99.90;;;;;;5024606;28;20434;-74
2023/06/03 04:11:28;;;;;;;3.08;1.25;;;9.90;99.90;;;;;;5028970;28;20430;-75
2023/06/03 04:13:54;;;;;;;3.13;1.20;;;10.00;99.90;;;;;;5026467;28;20425;-74
2023/06/03 04:16:45;;;;;;;4.80;1.30;;;10.00;99.90;;;;;;5027365;28;20407;-75
2023/06/03 04:19:20;;;;;;;5.22;1.75;;;10.20;99.90;;;;;;5026028;28;20507;-74
2023/06/03 04:21:46;;;;;;;4.95;1.33;;;10.20;99.90;;;;;;5026683;28;20431;-76
2023/06/03 04:24:12;;;;;;;2.40;1.30;;;10.20;99.90;;;;;;5028597;28;20970;-74
2023/06/03 04:26:38;;;;;;;4.07;1.67;;;10.20;99.90;;;;;;5028839;28;20412;-73
2023/06/03 04:29:04;;;;;;;2.42;1.10;;;10.60;99.90;;;;;;5026753;28;20935;-75
2023/06/03 04:31:30;;;;;;;7.20;1.60;;;10.60;99.90;;;;;;5026192;28;20431;-74
2023/06/03 04:33:56;;;;;;;4.00;1.60;;;10.70;99.90;;;;;;5026756;28;20434;-74
2023/06/03 04:36:22;;;;;;;5.70;1.40;;;10.60;99.90;;;;;;5021832;28;20573;-76
2023/06/03 04:38:48;;;;;;;3.20;1.13;;;10.60;99.90;;;;;;5024732;28;20419;-76
2023/06/03 04:41:16;;;;;;;3.00;1.05;;;10.90;99.90;;;;;;5026244;28;20793;-75
2023/06/03 04:43:45;;;;;;;5.50;1.60;;;10.90;99.90;;;;;;5022621;28;20449;-74
2023/06/03 04:46:12;;;;;;;2.60;1.00;;;11.20;99.90;;;;;;5022857;28;20980;-74
2023/06/03 04:48:41;;;;;;;2.33;1.40;;;11.10;99.90;;;;;;5021180;28;21075;-74
2023/06/03 04:51:10;;;;;;;3.67;1.50;;;11.00;99.90;;;;;;5020614;28;20533;-74
2023/06/03 04:53:36;;;;;;;6.82;1.50;;;11.10;99.90;;;;;;5020752;28;20423;-75
2023/06/03 04:56:03;;;;;;;3.20;1.30;;;11.10;99.90;;;;;;5020148;28;20441;-75
2023/06/03 04:58:29;;;;;;;2.93;1.17;;;11.20;99.90;;;;;;5016442;28;20426;-75
2023/06/03 05:00:55;;;;;;;3.55;1.30;;;11.20;99.90;;;;;;5016364;28;20435;-75
2023/06/03 05:03:22;;;;;;;2.55;1.42;;;11.30;99.90;;;;;;5019075;28;20415;-74
2023/06/03 05:05:48;;;;;;;3.13;1.38;;;11.40;99.90;;;;;;5019061;28;20916;-76
2023/06/03 05:08:14;;;;;;;4.63;1.30;;;11.40;99.90;;;;;;5021834;28;20429;-76
2023/06/03 05:10:40;;;;;;;2.63;1.43;;;11.30;99.90;;;;;;5022271;28;20525;-75
2023/06/03 05:13:06;;;;;;;2.58;1.48;;;11.30;99.90;;;;;;5036910;28;20417;-74
2023/06/03 05:15:33;;;;;;;3.17;1.33;;;11.40;99.90;;;;;;5037635;28;20440;-76
2023/06/03 05:18:02;;;;;;;3.00;1.30;;;11.30;99.90;;;;;;5039745;28;20429;-74
2023/06/03 05:20:29;;;;;;;2.35;1.27;;;11.30;99.90;;;;;;5040906;28;20508;-74
2023/06/03 05:22:55;;;;;;;3.85;1.48;;;11.30;99.90;;;;;;5042857;28;20428;-73
2023/06/03 05:25:22;;;;;;;3.07;1.57;;;11.40;99.90;;;;;;5024744;28;21029;-73
2023/06/03 05:27:48;;;;;;;3.53;1.60;;;11.40;99.90;;;;;;5038920;28;20907;-75
2023/06/03 05:30:14;;;;;;;4.40;1.30;;;11.50;99.90;;;;;;5047743;28;20520;-74
2023/06/03 05:32:41;;;;;;;2.78;1.45;;;11.40;99.90;;;;;;5048418;28;20780;-74
2023/06/03 05:35:07;;;;;;;3.72;1.40;;;11.50;99.90;;;;;;5050286;28;20881;-75
2023/06/03 05:37:33;;;;;;;3.28;1.48;;;11.60;99.90;;;;;;5048908;28;20957;-75
2023/06/03 05:39:58;;;;;;;3.40;1.47;;;11.60;99.90;;;;;;5048237;28;20465;-75
2023/06/03 05:42:24;;;;;;;3.17;1.53;;;11.70;99.90;;;;;;5046581;28;20449;-74
2023/06/03 05:44:50;;;;;;;9.77;2.40;;;11.90;99.90;;;;;;5032032;28;20464;-75
2023/06/03 05:47:15;;;;;;;2.55;1.45;;;12.80;99.90;;;;;;5049050;28;20409;-75
2023/06/03 05:49:41;;;;;;;3.13;1.60;;;12.60;99.90;;;;;;5047838;28;20425;-75
2023/06/03 05:52:07;;;;;;;5.55;1.98;;;12.50;99.90;;;;;;5049781;28;20425;-75
2023/06/03 05:54:33;;;;;;;3.78;1.80;;;12.40;99.90;;;;;;5050604;28;20517;-76
2023/06/03 05:56:58;;;;;;;5.30;1.63;;;12.50;99.90;;;;;;5044500;28;20494;-75
2023/06/03 05:59:25;;;;;;;4.47;1.40;;;12.50;99.90;;;;;;5047644;28;20425;-74
2023/06/03 06:01:50;;;;;;;4.45;1.85;;;12.70;99.90;;;;;;5029986;28;20783;-74
2023/06/03 06:04:16;;;;;;;1.70;1.20;;;12.60;99.90;;;;;;5032483;28;20441;-75
2023/06/03 06:06:42;;;;;;;3.08;1.52;;;12.50;99.90;;;;;;5049044;28;20449;-75
2023/06/03 06:09:08;;;;;;;3.35;1.25;;;12.40;99.90;;;;;;5047223;28;20433;-74
2023/06/03 06:11:34;;;;;;;5.07;1.67;;;12.30;99.90;;;;;;5047405;28;20826;-73
2023/06/03 06:13:59;;;;;;;3.95;1.33;;;12.40;99.90;;;;;;5048765;28;20421;-76
2023/06/03 06:16:25;;;;;;;5.72;2.00;;;12.60;99.90;;;;;;5048189;28;20492;-74
2023/06/03 06:18:51;;;;;;;4.65;1.67;;;12.80;99.90;;;;;;5048815;28;20417;-76
2023/06/03 06:21:18;;;;;;;3.75;1.73;;;12.70;99.90;;;;;;5045568;28;20433;-75
2023/06/03 06:23:44;;;;;;;3.87;1.60;;;12.70;99.90;;;;;;5032022;28;20973;-74
2023/06/03 06:26:13;;;;;;;4.60;2.00;;;12.90;99.90;;;;;;5046993;28;20944;-77
2023/06/03 06:28:39;;;;;;;2.83;1.45;;;13.00;99.90;;;;;;5045744;28;20425;-75
2023/06/03 06:31:06;;;;;;;2.90;1.35;;;13.00;99.90;;;;;;5044553;28;20999;-75
2023/06/03 06:33:35;;;;;;;2.60;1.27;;;13.30;99.90;;;;;;5029826;28;20430;-74
2023/06/03 06:36:16;;;;;;;3.42;1.55;;;13.40;99.90;;;;;;5047008;28;20467;-76
2023/06/03 06:38:41;;;;;;;2.55;1.15;;;13.50;99.90;;;;;;5043483;28;20452;-75
2023/06/03 06:41:11;;;;;;;4.00;1.23;;;13.50;99.90;;;;;;5048421;28;20916;-75
2023/06/03 06:43:39;;;;;;;6.35;1.48;;;13.60;99.90;;;;;;5048313;28;20464;-74
2023/06/03 06:46:05;;;;;;;3.83;1.37;;;13.80;99.90;;;;;;5041460;28;20453;-75
2023/06/03 06:48:34;;;;;;;3.33;1.88;;;13.90;99.90;;;;;;5031475;28;20413;-75
2023/06/03 06:51:00;;;;;;;6.30;1.60;;;15.80;99.90;;;;;;5029831;28;20426;-76
2023/06/03 06:53:28;;;;;;;3.42;1.45;;;17.40;99.90;;;;;;5044633;28;20464;-76
2023/06/03 06:56:01;;;;;;;2.60;1.13;;;17.60;99.90;;;;;;5042920;28;20463;-75
2023/06/03 06:58:32;;;;;;;5.13;1.17;;;17.90;99.90;;;;;;5047931;28;20404;-73
2023/06/03 07:01:00;;;;;;;5.80;1.27;;;19.00;99.90;;;;;;5045129;28;20420;-74
2023/06/03 07:03:26;;;;;;;1.73;0.98;;;19.30;99.90;;;;;;5047346;28;20900;-78
2023/06/03 07:05:53;;;;;;;3.80;1.23;;;19.90;98.90;;;;;;5025371;28;20433;-76
2023/06/03 07:08:22;;;;;;;2.88;0.70;;;19.20;97.20;;;;;;5045504;28;20429;-75
2023/06/03 07:10:47;;;;;;;5.78;1.05;;;19.40;95.10;;;;;;5046846;28;20983;-74
2023/06/03 07:13:15;;;;;;;3.85;1.63;;;19.60;94.90;;;;;;5048157;28;20485;-74
2023/06/03 07:15:41;;;;;;;2.28;1.05;;;18.90;94.40;;;;;;5035579;28;20441;-76
2023/06/03 07:18:12;;;;;;;3.53;0.88;;;17.90;99.00;;;;;;5045979;28;20425;-76
2023/06/03 07:20:42;;;;;;;4.03;1.20;;;19.30;96.30;;;;;;5045725;28;21500;-74
2023/06/03 07:23:16;;;;;;;2.53;1.15;;;20.40;93.40;;;;;;5047717;28;20501;-74
2023/06/03 07:25:44;;;;;;;3.20;0.90;;;21.50;92.40;;;;;;5044053;28;20469;-74
2023/06/03 07:28:12;;;;;;;2.38;1.00;;;20.60;90.00;;;;;;5046652;28;20931;-75
2023/06/03 07:30:39;;;;;;;2.67;0.80;;;18.90;91.80;;;;;;5045647;28;20429;-76
2023/06/03 07:33:08;;;;;;;3.08;0.80;;;18.80;93.70;;;;;;5047115;28;20830;-76
2023/06/03 07:35:35;;;;;;;3.22;0.82;;;17.60;96.00;;;;;;5048351;28;20563;-75
2023/06/03 07:38:04;;;;;;;2.88;0.80;;;16.90;94.70;;;;;;5046158;28;20998;-75
2023/06/03 07:40:41;;;;;;;2.08;0.73;;;17.20;97.90;;;;;;5046292;28;20487;-74
2023/06/03 07:43:11;;;;;;;1.70;0.70;;;16.80;98.50;;;;;;5045841;28;20421;-76
2023/06/03 07:45:37;;;;;;;3.28;0.77;;;16.30;99.30;;;;;;5030117;28;20418;-76
2023/06/03 07:48:04;;;;;;;1.83;1.25;;;16.50;99.90;;;;;;5047684;28;20471;-76
2023/06/03 07:50:32;;;;;;;6.90;0.82;;;16.30;99.90;;;;;;5046439;28;20440;-75
2023/06/03 07:53:02;;;;;;;3.05;0.88;;;16.20;99.90;;;;;;5045357;28;20421;-77
2023/06/03 07:55:38;;;;;;;3.60;0.70;;;16.20;99.90;;;;;;5028950;28;20429;-76
2023/06/03 07:58:04;;;;;;;4.03;0.95;;;16.40;99.90;;;;;;5045941;28;20417;-76
2023/06/03 08:00:30;;;;;;;2.10;1.03;;;16.50;99.90;;;;;;5045391;28;20423;-76
2023/06/03 08:02:56;;;;;;;2.43;0.97;;;16.50;99.90;;;;;;5046309;28;20482;-78
2023/06/03 08:05:33;;;;;;;4.90;1.00;;;16.70;99.90;;;;;;5046406;28;20424;-76
2023/06/03 08:07:59;;;;;;;1.77;0.90;;;16.80;99.90;;;;;;5023812;28;20414;-76
2023/06/03 08:10:25;;;;;;;2.88;0.85;;;16.90;99.90;;;;;;5040655;28;20429;-77
2023/06/03 08:12:51;;;;;;;3.03;1.25;;;17.00;99.90;;;;;;5042877;28;20417;-75
2023/06/03 08:15:28;;;;;;;1.17;0.68;;;17.20;99.90;;;;;;5041553;28;20570;-73
2023/06/03 08:17:55;;;;;;;1.60;0.68;;;17.50;99.90;;;;;;5034309;28;20455;-74
2023/06/03 08:20:28;;;;;;;1.30;0.60;;;18.00;99.90;;;;;;5024436;28;20433;-76
2023/06/03 08:22:55;;;;;;;2.28;0.75;;;18.40;98.70;;;;;;5022723;28;20740;-75
2023/06/03 08:25:22;;;;;;;3.07;1.20;;;18.60;94.30;;;;;;5045693;28;20574;-76
2023/06/03 08:27:48;;;;;;;1.83;0.60;;;18.10;94.10;;;;;;5038243;28;20444;-76
2023/06/03 08:30:15;;;;;;;4.20;0.93;;;18.40;95.70;;;;;;5022278;28;20440;-76
2023/06/03 08:32:42;;;;;;;1.55;0.60;;;18.80;93.90;;;;;;5041363;28;20429;-76
2023/06/03 08:35:10;;;;;;;3.38;1.10;;;18.90;93.70;;;;;;5045760;28;20477;-76
2023/06/03 08:37:37;;;;;;;4.68;0.50;;;18.30;93.40;;;;;;5035773;28;20499;-73
2023/06/03 08:40:10;;;;;;;2.67;0.88;;;18.60;93.80;;;;;;5040824;28;20437;-76
2023/06/03 08:42:47;;;;;;;1.35;0.70;;;19.00;91.00;;;;;;5017910;28;20903;-76
2023/06/03 08:45:15;;;;;;;2.53;0.73;;;19.50;92.30;;;;;;5026830;28;20457;-75
2023/06/03 08:48:16;;;;;;;7.53;1.37;;;18.60;91.80;;;;;;5025087;28;20481;-75
2023/06/03 08:50:48;;;;;;;2.28;0.93;;;19.00;91.80;;;;;;5041708;28;20440;-75
2023/06/03 08:53:14;;;;;;;2.42;0.98;;;18.70;88.90;;;;;;5045526;28;20927;-76
2023/06/03 08:55:41;;;;;;;3.25;1.00;;;18.50;90.00;;;;;;5044787;28;20430;-75
2023/06/03 08:58:23;;;;;;;2.47;0.90;;;18.70;90.90;;;;;;5039584;28;20499;-77
2023/06/03 09:00:55;;;;;;;1.98;0.63;;;18.70;90.00;;;;;;5039394;28;20417;-76
2023/06/03 09:03:22;;;;;;;2.33;0.73;;;18.90;91.60;;;;;;5038748;28;20417;-76
2023/06/03 09:05:49;;;;;;;1.27;0.50;;;18.80;89.60;;;;;;5045015;28;20833;-79
2023/06/03 09:08:16;;;;;;;2.42;1.15;;;18.70;83.40;;;;;;5046865;28;20513;-75
2023/06/03 09:10:45;;;;;;;1.48;0.60;;;18.40;84.40;;;;;;5044355;28;20915;-77
2023/06/03 09:13:13;;;;;;;1.77;0.68;;;19.00;91.00;;;;;;5027480;28;20425;-77
2023/06/03 09:15:42;;;;;;;2.17;0.90;;;18.80;83.20;;;;;;5043747;28;20512;-76
2023/06/03 09:18:08;;;;;;;3.58;0.60;;;18.50;79.40;;;;;;5005007;28;20443;-76
2023/06/03 09:20:36;;;;;;;1.38;0.73;;;18.70;88.00;;;;;;5038947;28;20787;-75
2023/06/03 09:23:02;;;;;;;1.00;0.50;;;18.40;78.50;;;;;;5046682;28;20401;-74
2023/06/03 09:25:27;;;;;;;2.67;0.88;;;18.50;83.50;;;;;;5041815;28;20421;-76
2023/06/03 09:27:53;;;;;;;1.25;0.80;;;18.50;86.50;;;;;;5043829;28;20436;-76
2023/06/03 09:30:19;;;;;;;3.35;1.23;;;18.60;84.00;;;;;;5043739;28;20781;-75
2023/06/03 09:32:45;;;;;;;1.50;0.60;;;18.70;84.80;;;;;;5045920;28;20496;-75
2023/06/03 09:35:11;;;;;;;2.60;0.90;;;18.50;81.90;;;;;;5045431;28;20916;-75
2023/06/03 09:37:37;;;;;;;3.50;0.60;;;18.50;79.90;;;;;;5044810;28;20449;-73
2023/06/03 09:40:05;;;;;;;3.27;1.13;;;19.00;80.70;;;;;;5045987;28;20483;-74
2023/06/03 09:42:41;;;;;;;1.70;0.80;;;18.60;77.90;;;;;;5046232;28;20435;-78
2023/06/03 09:45:20;;;;;;;2.90;0.95;;;18.70;81.70;;;;;;5046727;28;20556;-76
2023/06/03 09:47:46;;;;;;;2.58;0.70;;;19.40;82.30;;;;;;5047710;28;20412;-73
2023/06/03 09:50:12;;;;;;;3.15;0.88;;;19.20;82.10;;;;;;5043829;28;20427;-75
2023/06/03 09:52:37;;;;;;;2.93;0.60;;;19.60;78.50;;;;;;5027705;28;20446;-75
2023/06/03 09:55:08;;;;;;;3.30;0.85;;;20.10;77.00;;;;;;5035764;28;20425;-75
2023/06/03 09:57:34;;;;;;;2.00;0.80;;;19.80;76.60;;;;;;5044008;28;20485;-76
2023/06/03 10:00:18;;;;;;;4.47;0.88;;;19.70;86.10;;;;;;5044190;28;20478;-73
2023/06/03 10:02:45;;;;;;;2.50;0.70;;;19.70;83.90;;;;;;5047526;28;20401;-74
2023/06/03 10:05:30;;;;;;;3.47;0.80;;;19.30;80.10;;;;;;5049556;28;20417;-72
2023/06/03 10:07:57;;;;;;;5.25;1.27;;;19.60;79.90;;;;;;5049072;28;20900;-75
2023/06/03 10:10:23;;;;;;;2.30;0.60;;;19.70;75.10;;;;;;5047625;28;20428;-76
2023/06/03 10:12:50;;;;;;;2.15;0.77;;;19.70;77.10;;;;;;5046450;28;20419;-74
2023/06/03 10:15:38;;;;;;;1.55;0.73;;;19.90;74.50;;;;;;5043410;28;20444;-74
2023/06/03 10:18:05;;;;;;;3.00;0.70;;;20.20;80.20;;;;;;5011445;28;20407;-74
2023/06/03 10:20:39;;;;;;;0.93;0.52;;;20.40;83.60;;;;;;5043247;28;20520;-75
2023/06/03 10:23:06;;;;;;;1.38;0.70;;;20.10;77.50;;;;;;5038127;28;20406;-75
2023/06/03 10:25:38;;;;;;;2.53;0.57;;;20.20;83.00;;;;;;5048738;28;20406;-74
2023/06/03 10:28:04;;;;;;;3.05;0.70;;;20.20;78.30;;;;;;5049113;28;20453;-75
2023/06/03 10:30:30;;;;;;;2.53;0.73;;;20.20;77.90;;;;;;5047705;28;20456;-74
2023/06/03 10:32:58;;;;;;;3.20;0.77;;;20.20;71.60;;;;;;5047285;28;20428;-75
2023/06/03 10:35:24;;;;;;;2.75;1.15;;;20.10;73.40;;;;;;5048606;28;20510;-75
2023/06/03 10:37:52;;;;;;;1.20;0.60;;;20.20;71.20;;;;;;5035951;28;20425;-74
2023/06/03 10:40:18;;;;;;;1.83;0.73;;;20.20;78.40;;;;;;5047587;28;20417;-77
2023/06/03 10:42:45;;;;;;;3.00;0.70;;;20.10;72.70;;;;;;5037298;28;20755;-74
2023/06/03 10:45:11;;;;;;;1.75;1.08;;;19.80;75.50;;;;;;5047220;28;20456;-73
2023/06/03 10:47:41;;;;;;;1.23;0.60;;;20.10;73.10;;;;;;5048096;28;20830;-74
2023/06/03 10:50:30;;;;;;;2.55;0.73;;;20.10;73.20;;;;;;5047263;28;20433;-78
2023/06/03 10:53:32;;;;;;;2.15;0.60;;;20.40;70.70;;;;;;5041433;28;20449;-75
2023/06/03 10:56:32;;;;;;;3.03;0.68;;;20.10;77.20;;;;;;5047790;28;20516;-75
2023/06/03 10:59:02;;;;;;;3.25;0.82;;;20.10;77.10;;;;;;4975644;28;20411;-74
2023/06/03 11:01:55;;;;;;;2.60;1.08;;;20.10;80.60;;;;;;5029492;28;20403;-76
2023/06/03 11:04:21;;;;;;;1.17;0.90;;;20.50;74.60;;;;;;5029539;28;20452;-74
2023/06/03 11:06:46;;;;;;;2.80;0.80;;;19.80;76.80;;;;;;5044184;28;20429;-75
2023/06/03 11:09:18;;;;;;;2.97;0.70;;;20.10;75.00;;;;;;5048082;28;20491;-74
2023/06/03 11:11:52;;;;;;;2.60;0.88;;;19.90;77.50;;;;;;5041201;28;20795;-74
2023/06/03 11:14:24;;;;;;;4.90;0.60;;;20.10;73.20;;;;;;5039108;28;20911;-77
2023/06/03 11:16:55;;;;;;;3.03;0.95;;;20.20;80.40;;;;;;5048512;28;20441;-74
2023/06/03 11:19:31;;;;;;;1.95;0.63;;;20.20;78.60;;;;;;5029811;28;20413;-75
2023/06/03 11:21:58;;;;;;;3.05;0.80;;;20.10;76.40;;;;;;5047093;28;20425;-76
2023/06/03 11:24:39;;;;;;;2.40;0.65;;;20.30;80.00;;;;;;5046625;28;20924;-75
2023/06/03 11:27:13;;;;;;;3.38;1.20;;;20.10;79.80;;;;;;5046105;28;20779;-76
2023/06/03 11:29:56;;;;;;;2.85;1.00;;;19.90;77.30;;;;;;5010303;28;20443;-75
2023/06/03 11:32:36;;;;;;;1.38;0.80;;;20.20;81.40;;;;;;5044567;28;20429;-74
2023/06/03 11:35:04;;;;;;;2.50;0.93;;;20.10;79.70;;;;;;5047975;28;20475;-73
2023/06/03 11:37:48;;;;;;;3.72;0.73;;;20.00;76.00;;;;;;5046727;28;20760;-77
2023/06/03 11:40:17;;;;;;;1.17;0.70;;;20.00;75.70;;;;;;5046632;28;20425;-75
2023/06/03 11:42:46;;;;;;;2.38;0.80;;;20.60;83.00;;;;;;5045354;28;20437;-75
2023/06/03 11:45:28;;;;;;;2.45;0.65;;;20.30;73.40;;;;;;5047902;28;20421;-75
2023/06/03 11:48:03;;;;;;;2.35;0.80;;;20.30;73.60;;;;;;5047112;28;20453;-74
2023/06/03 11:50:31;;;;;;;3.20;1.00;;;20.30;78.20;;;;;;5045183;28;20437;-75
2023/06/03 11:52:57;;;;;;;2.35;0.90;;;20.00;77.20;;;;;;5046117;28;20425;-75
2023/06/03 11:55:27;;;;;;;1.38;0.90;;;20.70;82.60;;;;;;5043749;28;20444;-75
2023/06/03 11:58:00;;;;;;;3.30;1.00;;;20.20;72.70;;;;;;5042305;28;20453;-74
2023/06/03 12:00:26;;;;;;;2.70;0.73;;;20.60;80.50;;;;;;5028019;28;20407;-73
2023/06/03 12:02:53;;;;;;;3.50;0.80;;;20.60;74.80;;;;;;5044094;28;20439;-77
2023/06/03 12:05:19;;;;;;;1.50;0.73;;;20.50;83.90;;;;;;5030362;28;20436;-74
2023/06/03 12:08:01;;;;;;;4.10;1.10;;;20.20;75.20;;;;;;5056102;28;20516;-74
2023/06/03 12:10:40;;;;;;;3.58;0.68;;;20.40;77.60;;;;;;5029127;28;20520;-74
2023/06/03 12:13:06;;;;;;;2.30;0.65;;;20.30;76.40;;;;;;5053430;28;20500;-75
2023/06/03 12:15:33;;;;;;;1.75;0.95;;;20.60;75.50;;;;;;5047424;28;20430;-75
2023/06/03 12:18:03;;;;;;;3.63;1.10;;;20.60;78.10;;;;;;5044827;28;20771;-76
2023/06/03 12:20:29;;;;;;;0.98;0.60;;;20.60;81.90;;;;;;5047652;28;20413;-75
2023/06/03 12:22:59;;;;;;;2.38;0.70;;;20.90;74.30;;;;;;5045807;28;20562;-75
2023/06/03 12:25:25;;;;;;;2.05;0.98;;;21.00;77.30;;;;;;5044093;28;20459;-74
2023/06/03 12:27:51;;;;;;;1.75;0.77;;;20.60;74.10;;;;;;5046045;28;20572;-76
2023/06/03 12:30:29;;;;;;;1.85;0.85;;;20.70;80.20;;;;;;5045866;28;20614;-76
2023/06/03 12:32:58;;;;;;;2.70;0.70;;;20.40;73.10;;;;;;5046303;28;20409;-76
2023/06/03 12:35:28;;;;;;;1.75;0.98;;;20.70;77.60;;;;;;5045508;28;20468;-76
2023/06/03 12:38:07;;;;;;;2.75;0.90;;;20.50;72.90;;;;;;5046115;28;20737;-75
2023/06/03 12:40:35;;;;;;;2.13;1.10;;;20.60;77.40;;;;;;5047514;28;20429;-73
2023/06/03 12:43:02;;;;;;;1.13;0.73;;;20.20;66.30;;;;;;5040191;28;20438;-75
2023/06/03 12:45:28;;;;;;;2.55;0.95;;;20.20;67.70;;;;;;5043320;28;20832;-76
2023/06/03 12:47:56;;;;;;;3.85;1.00;;;20.50;72.40;;;;;;5043903;28;21012;-75
2023/06/03 12:50:26;;;;;;;1.58;1.00;;;20.80;75.80;;;;;;5046622;28;20421;-74
2023/06/03 12:52:51;;;;;;;1.92;0.65;;;20.50;71.90;;;;;;5045380;28;20413;-76
2023/06/03 12:55:18;;;;;;;2.03;0.70;;;20.60;73.90;;;;;;5046988;28;20421;-74
2023/06/03 12:57:48;;;;;;;2.00;0.63;;;20.30;74.30;;;;;;5044230;28;20421;-74